Terminal Aerodrome Forecast
Issued by NWS

Home | Current Version | Previous Version | Text Only | Print | Product List | Glossary On
Versions: 1 2 3 4 5 6 7 8 9 10 11 12 13 14 15 16 17 18 19 20 21 22 23
000
FTUS43 KDLH 031601 AAA
TAFHYR
TAF AMD
KHYR 031601Z 0316/0412 21003KT P6SM SCT010 OVC030
     FM032000 19004KT P6SM OVC018
     FM040500 17003KT P6SM BKN025 OVC040=

USA.gov is the U.S. government's official web portal to all federal, state and local government web resources and services.